Flight Track Log - Related Links

Times and Time Zones

All times are in EST time to prevent confusion due to time zone crossing. See the N244A flight status page for this flight to view local times or setup timezone preferences in your user account.

Time Position Orientation Groundspeed Altitude Reporting Facility
EST Latitude Longitude Course Direction KTS MPH feet Rate Location/Type
Fri 06:20:32 PM 43.6167 -79.7000 216° Southwest 230 265 4,100  Level Toronto Center
Fri 06:21:32 PM 43.5500 -79.7167 190° South 280 322 7,100 2,950 Climbing Toronto Center
Fri 06:22:32 PM 43.4667 -79.7167 180° South 290 334 10,000 2,300 Climbing Toronto Center
Fri 06:23:32 PM 43.3667 -79.7167 180° South 370 426 11,700 2,150 Climbing Toronto Center
Fri 06:24:32 PM 43.2500 -79.7500 192° South 420 483 14,300 2,600 Climbing Toronto Center
Fri 06:25:32 PM 43.1333 -79.7500 180° South 430 495 16,900 2,300 Climbing Toronto Center
Fri 06:26:32 PM 43.0167 -79.7500 180° South 440 506 18,900 1,950 Climbing Toronto Center
Fri 06:27:32 PM 42.8833 -79.7500 180° South 460 529 20,800 1,750 Climbing Toronto Center
Fri 06:28:32 PM 42.7914 -79.7997 202° Southwest 464 534 22,400 1,967 Climbing Cleveland Center
Fri 06:29:34 PM 42.6361 -79.8350 189° South 474 545 24,800 2,129 Climbing Cleveland Center
Fri 06:30:36 PM 42.5058 -79.8611 188° South 478 550 26,800 1,742 Climbing Cleveland Center
Fri 06:31:38 PM 42.3800 -79.8889 189° South 476 548 28,400 1,210 Climbing Cleveland Center
Fri 06:32:40 PM 42.2472 -79.9161 189° South 484 557 29,300 1,016 Climbing Cleveland Center
Fri 06:33:42 PM 42.0856 -79.9522 189° South 493 567 30,500 1,016 Climbing Cleveland Center
Fri 06:34:44 PM 41.9508 -79.9797 189° South 495 570 31,400 823 Climbing Cleveland Center
Fri 06:35:46 PM 41.8189 -80.0067 189° South 495 570 32,200 823 Climbing Cleveland Center
Fri 06:36:48 PM 41.6819 -80.0367 189° South 492 566 33,100 912 Climbing Cleveland Center
Fri 06:37:51 PM 41.5314 -80.0650 188° South 493 567 34,100 912 Climbing Cleveland Center
Fri 06:38:53 PM 41.3983 -80.0950 190° South 487 560 35,000 871 Climbing Cleveland Center
Fri 06:39:55 PM 41.2644 -80.1206 188° South 487 560 35,900 823 Climbing Cleveland Center
Fri 06:40:57 PM 41.1325 -80.1483 189° South 483 556 36,700 532 Climbing Cleveland Center
Fri 06:41:59 PM 41.0039 -80.1750 189° South 472 543 37,000 145 Climbing Cleveland Center
Fri 06:43:01 PM 40.8533 -80.2047 188° South 479 551 37,000  Level Cleveland Center
Fri 06:44:03 PM 40.7083 -80.2358 189° South 478 550 37,000  Level Cleveland Center
Fri 06:45:05 PM 40.5767 -80.2628 189° South 482 555 37,000 387 Level Cleveland Center
Fri 06:46:07 PM 40.4475 -80.2897 189° South 475 547 37,800 774 Climbing Cleveland Center
Fri 06:47:09 PM 40.3111 -80.3189 189° South 455 524 38,600 774 Climbing Cleveland Center
Fri 06:48:11 PM 40.1908 -80.3439 189° South 445 512 39,400 677 Climbing Cleveland Center
Fri 06:49:13 PM 40.0739 -80.3689 189° South 432 497 40,000 288 Climbing Cleveland Center
Fri 06:50:16 PM 39.9572 -80.3933 189° South 427 491 40,000  Level Cleveland Center
Fri 06:51:18 PM 39.8397 -80.4164 189° South 428 493 40,000  Level Cleveland Center
Fri 06:52:20 PM 39.6986 -80.4456 189° South 427 491 40,000  Level Cleveland Center
Fri 06:53:22 PM 39.5797 -80.4686 189° South 431 496 40,000  Level Cleveland Center
Fri 06:54:24 PM 39.4628 -80.4964 190° South 429 494 40,000  Level Cleveland Center
Fri 06:55:26 PM 39.3447 -80.5197 189° South 430 495 40,000  Level Cleveland Center
Fri 06:56:28 PM 39.2256 -80.5425 188° South 434 499 40,000  Level Cleveland Center
Fri 06:57:30 PM 39.0844 -80.5728 189° South 431 496 40,000  Level Cleveland Center
Fri 06:58:32 PM 38.9714 -80.6114 195° South 422 486 40,000  Level Cleveland Center
Fri 06:59:34 PM 38.8617 -80.6528 196° South 414 476 40,000  Level Cleveland Center
Fri 07:00:56 PM 38.7075 -80.7125 197° South 414 476 40,000  Level Indianapolis Center
Fri 07:01:58 PM 38.5900 -80.7406 191° South 423 487 40,000  Level Indianapolis Center
Fri 07:03:00 PM 38.4703 -80.7594 187° South 431 496 40,000  Level Indianapolis Center
Fri 07:04:02 PM 38.3506 -80.7833 189° South 431 496 40,000  Level Indianapolis Center
Fri 07:05:04 PM 38.2319 -80.8058 188° South 429 494 40,000  Level Indianapolis Center
Fri 07:06:06 PM 38.1139 -80.8283 189° South 427 491 40,000  Level Indianapolis Center
Fri 07:07:08 PM 37.9717 -80.8564 189° South 428 493 40,000  Level Indianapolis Center
Fri 07:08:10 PM 37.8522 -80.8772 188° South 431 496 40,000  Level Indianapolis Center
Fri 07:09:12 PM 37.7297 -80.9017 189° South 432 497 40,000  Level Indianapolis Center
Fri 07:10:14 PM 37.6156 -80.9231 188° South 429 494 40,000  Level Indianapolis Center
Fri 07:11:16 PM 37.4975 -80.9442 188° South 433 498 40,000  Level Indianapolis Center
Fri 07:12:18 PM 37.3592 -80.9717 189° South 432 497 40,000  Level Indianapolis Center
Fri 07:13:20 PM 37.2422 -80.9917 188° South 434 499 40,000  Level Indianapolis Center
Fri 07:14:22 PM 37.1256 -81.0150 189° South 435 501 40,000  Level Indianapolis Center
Fri 07:15:24 PM 36.9856 -81.0389 188° South 435 501 40,000  Level Indianapolis Center
Fri 07:16:26 PM 36.8692 -81.0608 189° South 434 499 40,000  Level Indianapolis Center
Fri 07:17:28 PM 36.7533 -81.0822 188° South 433 498 40,000  Level Indianapolis Center
Fri 07:18:30 PM 36.6367 -81.1025 188° South 433 498 40,000  Level Indianapolis Center
Fri 07:19:32 PM 36.4967 -81.1292 189° South 435 501 40,000  Level Indianapolis Center
Fri 07:20:34 PM 36.3817 -81.1494 188° South 429 494 40,000  Level Indianapolis Center
Fri 07:21:36 PM 36.2658 -81.1700 188° South 430 495 40,000  Level Indianapolis Center
Fri 07:22:49 PM 36.1150 -81.1986 189° South 427 491 40,000  Level Atlanta Center
Fri 07:23:49 PM 35.9967 -81.2181 188° South 427 491 40,000  Level Atlanta Center
Fri 07:24:49 PM 35.8636 -81.2433 189° South 440 506 40,000  Level Atlanta Center
Fri 07:25:49 PM 35.7536 -81.2650 189° South 440 506 40,000  Level Atlanta Center
Fri 07:26:49 PM 35.6247 -81.2847 187° South 435 501 40,000  Level Atlanta Center
Fri 07:27:49 PM 35.5064 -81.3064 188° South 435 501 40,000  Level Atlanta Center
Fri 07:28:49 PM 35.3836 -81.3283 188° South 435 501 40,000  Level Atlanta Center
Fri 07:29:49 PM 35.2675 -81.3500 189° South 435 501 40,000  Level Atlanta Center
Fri 07:30:49 PM 35.1469 -81.3717 188° South 440 506 40,000  Level Atlanta Center
Fri 07:32:41 PM 34.9314 -81.4089 188° South 433 498 40,000  Level Jacksonville Center
Fri 07:33:41 PM 34.8083 -81.4286 187° South 438 504 40,000  Level Jacksonville Center
Fri 07:34:41 PM 34.6919 -81.4533 190° South 438 504 40,000  Level Jacksonville Center
Fri 07:35:41 PM 34.5692 -81.4706 187° South 438 504 40,000  Level Jacksonville Center
Fri 07:36:41 PM 34.4483 -81.4925 189° South 444 511 40,000  Level Jacksonville Center
Fri 07:37:41 PM 34.3339 -81.5147 189° South 444 511 40,000  Level Jacksonville Center
Fri 07:38:41 PM 34.2153 -81.5392 190° South 444 511 40,000  Level Jacksonville Center
Fri 07:39:41 PM 34.1028 -81.5758 195° South 437 503 40,000  Level Jacksonville Center
Fri 07:40:41 PM 33.9864 -81.6078 193° South 431 496 40,000  Level Jacksonville Center
Fri 07:41:41 PM 33.8719 -81.6369 192° South 431 496 40,000  Level Jacksonville Center
Fri 07:42:41 PM 33.7575 -81.6736 195° South 431 496 40,000  Level Jacksonville Center
Fri 07:43:41 PM 33.6431 -81.7025 192° South 431 496 40,000  Level Jacksonville Center
Fri 07:44:41 PM 33.5264 -81.7364 194° South 431 496 40,000  Level Jacksonville Center
Fri 07:45:41 PM 33.4119 -81.7678 193° South 431 496 40,000  Level Jacksonville Center
Fri 07:46:41 PM 33.2975 -81.7992 193° South 431 496 40,000  Level Jacksonville Center
Fri 07:47:41 PM 33.1808 -81.8328 194° South 431 496 40,000  Level Jacksonville Center
Fri 07:48:41 PM 33.0642 -81.8639 193° South 431 496 40,000  Level Jacksonville Center
Fri 07:49:41 PM 32.9497 -81.8950 193° South 431 496 40,000  Level Jacksonville Center
Fri 07:50:41 PM 32.8308 -81.9283 193° South 431 496 40,000  Level Jacksonville Center
Fri 07:51:41 PM 32.7142 -81.9592 193° South 431 496 40,000  Level Jacksonville Center
Fri 07:52:41 PM 32.6017 -81.9950 195° South 423 487 40,000  Level Jacksonville Center
Fri 07:53:41 PM 32.4831 -82.0208 190° South 423 487 40,000  Level Jacksonville Center
Fri 07:54:41 PM 32.3558 -82.0614 195° South 429 494 40,000  Level Jacksonville Center
Fri 07:55:41 PM 32.2497 -82.0917 194° South 435 501 40,000  Level Jacksonville Center
Fri 07:56:41 PM 32.1139 -82.1053 185° South 443 510 40,000  Level Jacksonville Center
Fri 07:57:41 PM 32.0014 -82.1183 186° South 453 521 40,000  Level Jacksonville Center
Fri 07:58:41 PM 31.8658 -82.1342 186° South 453 521 40,000  Level Jacksonville Center
Fri 07:59:41 PM 31.7425 -82.1450 184° South 445 512 40,000  Level Jacksonville Center
Fri 08:00:41 PM 31.6342 -82.1556 185° South 438 504 40,000  Level Jacksonville Center
Fri 08:01:41 PM 31.5067 -82.1689 185° South 444 511 40,000  Level Jacksonville Center
Fri 08:02:41 PM 31.3858 -82.1819 185° South 444 511 40,000  Level Jacksonville Center
Fri 08:03:41 PM 31.2606 -82.1928 184° South 444 511 40,000  Level Jacksonville Center
Fri 08:04:41 PM 31.1353 -82.2058 185° South 444 511 40,000 -200 Level Jacksonville Center
Fri 08:05:41 PM 31.0100 -82.2186 185° South 449 517 39,600 -500 Descending Jacksonville Center
Fri 08:06:41 PM 30.8808 -82.2342 186° South 454 522 39,000 -600 Descending Jacksonville Center
Fri 08:07:41 PM 30.7514 -82.2447 184° South 466 536 38,400 -500 Descending Jacksonville Center
Fri 08:08:41 PM 30.6200 -82.2625 187° South 472 543 38,000 -250 Descending Jacksonville Center
Fri 08:09:41 PM 30.4800 -82.2683 182° South 466 536 37,900 -50 Descending Jacksonville Center
Fri 08:10:41 PM 30.3486 -82.2811 185° South 466 536 37,900 -200 Level Jacksonville Center
Fri 08:11:41 PM 30.2172 -82.2939 185° South 466 536 37,500 -1,300 Descending Jacksonville Center
Fri 08:12:41 PM 30.0856 -82.3069 185° South 471 542 35,300 -2,200 Descending Jacksonville Center
Fri 08:13:41 PM 29.9500 -82.3269 187° South 484 557 33,100 -1,950 Descending Jacksonville Center
Fri 08:14:41 PM 29.8436 -82.3369 185° South 490 564 31,400 -2,200 Descending Jacksonville Center
Fri 08:15:41 PM 29.6786 -82.3475 183° South 490 564 28,700 -2,450 Descending Jacksonville Center
Fri 08:16:41 PM 29.5367 -82.3556 183° South 501 577 26,500 -1,700 Descending Jacksonville Center
Fri 08:17:41 PM 29.3969 -82.3347 173° South 501 577 25,300 -2,000 Descending Jacksonville Center
Fri 08:18:41 PM 29.2547 -82.3214 175° South 511 588 22,500 -2,700 Descending Jacksonville Center
Fri 08:19:41 PM 29.1169 -82.3031 173° South 511 588 19,900 -2,500 Descending Jacksonville Center
Fri 08:20:41 PM 28.9853 -82.2872 174° South 496 571 17,500 -2,500 Descending Jacksonville Center
Fri 08:21:41 PM 28.8600 -82.2739 175° South 481 554 14,900 -1,534 Descending Jacksonville Center
Fri 08:23:37 PM 28.6167 -82.2500 175° South 440 506 13,000 -923 Descending Tampa TRACON
Fri 08:24:43 PM 28.5000 -82.2500 180° South 422 486 12,100 -952 Descending Tampa TRACON
Fri 08:25:43 PM 28.3833 -82.2500 180° South 420 483 11,000 -550 Descending Tampa TRACON
Fri 08:26:43 PM 28.2833 -82.3333 216° Southwest 415 478 11,000 -263 Level Tampa TRACON
Fri 08:27:37 PM 28.2000 -82.4000 215° Southwest 304 350 10,500 -1,316 Descending Tampa TRACON
Fri 08:28:37 PM 28.1333 -82.4167 192° South 291 335 8,500 -2,421 Descending Tampa TRACON
Fri 08:29:31 PM 28.0500 -82.4167 180° South 302 348 5,900 -1,842 Descending Tampa TRACON
Fri 08:30:31 PM 27.9833 -82.4167 180° South 258 297 5,000 -957 Descending Tampa TRACON
Fri 08:31:49 PM 27.8833 -82.4500 196° South 262 302 3,700 -1,091 Descending Tampa TRACON
Fri 08:32:43 PM 27.8167 -82.4667 192° South 272 313 2,600 -579 Descending Tampa TRACON
Fri 08:33:43 PM 27.8167 -82.5333 270° West 216 249 2,600 -158 Level Tampa TRACON
Fri 08:34:37 PM 27.8500 -82.5500 336° Northwest 144 166 2,300 -661 Descending Tampa TRACON
Fri 08:35:32 PM 27.8833 -82.5500 360° North 133 153 1,400 -744 Descending Tampa TRACON
Fri 08:36:38 PM 27.9167 -82.5500 360° North 111 128 800 -545 Descending Tampa TRACON

Login

Don't have an account? Register now (free) for customized features, flight alerts, and more!